TOM49J LSZH-EHAM
Flight info
| Callsign | TOM49J |
|---|---|
| Flight time | 0h 58m |
| Altitude | 34000 |
| Route | VEBIT T10 TORPA DCT EDOPI DCT GIVOR DCT SORAL DCT IBERA DCT BUB/N0450F300 Y28 HELEN |
| Aircraft | B38M/M-SDE1FGHILORVWXY/HB1 |
Departure
| Time | 2026-05-05 20:40 |
|---|---|
| Airport | Zürich Airport (LSZH) |
Arrival
| Time | 2026-05-05 21:39 |
|---|---|
| Airport | Amsterdam Airport Schiphol (EHAM) |
| Time | Latitude | Longitude | Altitude | Speed | Heading |
|---|---|---|---|---|---|
| 2026-05-05 19:31 | 47.46040 | 8.55833 | 1406 ft | 0 kts | 6° |
| 2026-05-05 20:30 | 47.46034 | 8.55832 | 1406 ft | 2 kts | 6° |
| 2026-05-05 20:30 | 47.46014 | 8.55828 | 1402 ft | 3 kts | 9° |
| 2026-05-05 20:31 | 47.45994 | 8.55822 | 1402 ft | 3 kts | 14° |
| 2026-05-05 20:31 | 47.45975 | 8.55814 | 1410 ft | 3 kts | 21° |
| 2026-05-05 20:31 | 47.45957 | 8.55801 | 1406 ft | 3 kts | 39° |
| 2026-05-05 20:31 | 47.45946 | 8.55782 | 1410 ft | 3 kts | 79° |
| 2026-05-05 20:32 | 47.45946 | 8.55772 | 1409 ft | 0 kts | 96° |
| 2026-05-05 20:34 | 47.45946 | 8.55773 | 1409 ft | 1 kts | 96° |
| 2026-05-05 20:35 | 47.45942 | 8.55825 | 1409 ft | 8 kts | 96° |
| 2026-05-05 20:35 | 47.45933 | 8.55934 | 1411 ft | 14 kts | 96° |
| 2026-05-05 20:35 | 47.45920 | 8.56123 | 1412 ft | 23 kts | 96° |
| 2026-05-05 20:35 | 47.45913 | 8.56227 | 1406 ft | 0 kts | 96° |
| 2026-05-05 20:36 | 47.45913 | 8.56249 | 1406 ft | 7 kts | 85° |
| 2026-05-05 20:37 | 47.45979 | 8.56318 | 1409 ft | 18 kts | 8° |
| 2026-05-05 20:37 | 47.46022 | 8.56326 | 1410 ft | 3 kts | 6° |
| 2026-05-05 20:37 | 47.46041 | 8.56329 | 1408 ft | 4 kts | 7° |
| 2026-05-05 20:37 | 47.46077 | 8.56334 | 1407 ft | 7 kts | 5° |
| 2026-05-05 20:38 | 47.46128 | 8.56364 | 1407 ft | 10 kts | 44° |
| 2026-05-05 20:38 | 47.46189 | 8.56369 | 1404 ft | 11 kts | 319° |
| 2026-05-05 20:38 | 47.46202 | 8.56350 | 1400 ft | 0 kts | 316° |
| 2026-05-05 20:39 | 47.46206 | 8.56345 | 1400 ft | 5 kts | 314° |
| 2026-05-05 20:39 | 47.46291 | 8.56225 | 1405 ft | 42 kts | 317° |
| 2026-05-05 20:39 | 47.46678 | 8.55694 | 1402 ft | 107 kts | 317° |
| 2026-05-05 20:40 | 47.47360 | 8.54763 | 1399 ft | 157 kts | 318° |
| 2026-05-05 20:40 | 47.48229 | 8.53599 | 1692 ft | 171 kts | 317° |
| 2026-05-05 20:40 | 47.49042 | 8.52404 | 2442 ft | 166 kts | 310° |
| 2026-05-05 20:40 | 47.50009 | 8.51224 | 2735 ft | 190 kts | 322° |
| 2026-05-05 20:41 | 47.51164 | 8.50202 | 3314 ft | 199 kts | 326° |
| 2026-05-05 20:41 | 47.52415 | 8.49133 | 3624 ft | 216 kts | 320° |
| 2026-05-05 20:41 | 47.53344 | 8.47448 | 4202 ft | 209 kts | 288° |
| 2026-05-05 20:41 | 47.53549 | 8.45371 | 4900 ft | 204 kts | 261° |
| 2026-05-05 20:42 | 47.53121 | 8.43399 | 5628 ft | 201 kts | 246° |
| 2026-05-05 20:42 | 47.52561 | 8.41471 | 6195 ft | 207 kts | 246° |
| 2026-05-05 20:42 | 47.51857 | 8.39626 | 6771 ft | 215 kts | 229° |
| 2026-05-05 20:42 | 47.50551 | 8.38413 | 6794 ft | 234 kts | 199° |
| 2026-05-05 20:43 | 47.48895 | 8.37865 | 6792 ft | 251 kts | 196° |
| 2026-05-05 20:43 | 47.47176 | 8.37294 | 7028 ft | 261 kts | 195° |
| 2026-05-05 20:43 | 47.45400 | 8.36712 | 7833 ft | 261 kts | 195° |
| 2026-05-05 20:43 | 47.43609 | 8.36127 | 8559 ft | 266 kts | 195° |
| 2026-05-05 20:44 | 47.41789 | 8.35532 | 9312 ft | 269 kts | 194° |
| 2026-05-05 20:44 | 47.40579 | 8.35096 | 9793 ft | 270 kts | 200° |
| 2026-05-05 20:44 | 47.38986 | 8.33656 | 10369 ft | 277 kts | 224° |
| 2026-05-05 20:44 | 47.37840 | 8.31265 | 10669 ft | 296 kts | 240° |
| 2026-05-05 20:45 | 47.35787 | 8.25616 | 11378 ft | 324 kts | 241° |
| 2026-05-05 20:45 | 47.34734 | 8.22675 | 12106 ft | 326 kts | 241° |
| 2026-05-05 20:45 | 47.33669 | 8.19693 | 12765 ft | 331 kts | 241° |
| 2026-05-05 20:46 | 47.32238 | 8.15681 | 13704 ft | 336 kts | 241° |
| 2026-05-05 20:46 | 47.31500 | 8.13607 | 14128 ft | 340 kts | 241° |
| 2026-05-05 20:46 | 47.30400 | 8.10514 | 14777 ft | 343 kts | 241° |
| 2026-05-05 20:46 | 47.29284 | 8.07381 | 15423 ft | 348 kts | 241° |
| 2026-05-05 20:47 | 47.28153 | 8.04207 | 16104 ft | 351 kts | 242° |
| 2026-05-05 20:47 | 47.27341 | 8.00853 | 16727 ft | 357 kts | 259° |
| 2026-05-05 20:47 | 47.27312 | 7.97171 | 17394 ft | 364 kts | 274° |
| 2026-05-05 20:47 | 47.27621 | 7.93390 | 18011 ft | 369 kts | 274° |
| 2026-05-05 20:48 | 47.27944 | 7.89675 | 18583 ft | 372 kts | 274° |
| 2026-05-05 20:48 | 47.28288 | 7.85895 | 19102 ft | 377 kts | 275° |
| 2026-05-05 20:48 | 47.28646 | 7.82055 | 19632 ft | 380 kts | 275° |
| 2026-05-05 20:48 | 47.29011 | 7.78178 | 20145 ft | 384 kts | 275° |
| 2026-05-05 20:49 | 47.29444 | 7.74261 | 20647 ft | 390 kts | 282° |
| 2026-05-05 20:49 | 47.30596 | 7.70615 | 21223 ft | 399 kts | 302° |
| 2026-05-05 20:49 | 47.32487 | 7.67555 | 21683 ft | 410 kts | 317° |
| 2026-05-05 20:49 | 47.34887 | 7.65224 | 22206 ft | 417 kts | 328° |
| 2026-05-05 20:50 | 47.37397 | 7.63054 | 22658 ft | 421 kts | 326° |
| 2026-05-05 20:50 | 47.39919 | 7.60826 | 23136 ft | 424 kts | 326° |
| 2026-05-05 20:50 | 47.42468 | 7.58571 | 23592 ft | 428 kts | 326° |
| 2026-05-05 20:50 | 47.45013 | 7.56310 | 24015 ft | 430 kts | 326° |
| 2026-05-05 20:51 | 47.47590 | 7.54024 | 24471 ft | 432 kts | 326° |
| 2026-05-05 20:51 | 47.50171 | 7.51730 | 24899 ft | 435 kts | 325° |
| 2026-05-05 20:51 | 47.52774 | 7.49414 | 25290 ft | 438 kts | 325° |
| 2026-05-05 20:51 | 47.55391 | 7.47082 | 25699 ft | 440 kts | 325° |
| 2026-05-05 20:52 | 47.58024 | 7.44733 | 26130 ft | 441 kts | 325° |
| 2026-05-05 20:52 | 47.60662 | 7.42379 | 26529 ft | 443 kts | 325° |
| 2026-05-05 20:52 | 47.63274 | 7.40044 | 26903 ft | 445 kts | 325° |
| 2026-05-05 20:52 | 47.65926 | 7.37671 | 27277 ft | 448 kts | 325° |
| 2026-05-05 20:53 | 47.68595 | 7.35279 | 27649 ft | 450 kts | 324° |
| 2026-05-05 20:53 | 47.71278 | 7.32871 | 28013 ft | 452 kts | 324° |
| 2026-05-05 20:53 | 47.73979 | 7.30446 | 28376 ft | 454 kts | 324° |
| 2026-05-05 20:53 | 47.76688 | 7.28010 | 28738 ft | 456 kts | 324° |
| 2026-05-05 20:54 | 47.79412 | 7.25559 | 29081 ft | 458 kts | 325° |
| 2026-05-05 20:54 | 47.82144 | 7.23096 | 29389 ft | 461 kts | 325° |
| 2026-05-05 20:54 | 47.84894 | 7.20613 | 29724 ft | 463 kts | 325° |
| 2026-05-05 20:54 | 47.87644 | 7.18132 | 30017 ft | 466 kts | 325° |
| 2026-05-05 20:55 | 47.90430 | 7.15608 | 30156 ft | 471 kts | 325° |
| 2026-05-05 20:55 | 47.93230 | 7.13074 | 30488 ft | 471 kts | 325° |
| 2026-05-05 20:55 | 47.96039 | 7.10525 | 30739 ft | 473 kts | 325° |
| 2026-05-05 20:55 | 47.98856 | 7.07967 | 31017 ft | 474 kts | 325° |
| 2026-05-05 20:56 | 48.01684 | 7.05396 | 31307 ft | 475 kts | 326° |
| 2026-05-05 20:56 | 48.04508 | 7.02828 | 31694 ft | 474 kts | 326° |
| 2026-05-05 20:56 | 48.07323 | 7.00268 | 32077 ft | 473 kts | 326° |
| 2026-05-05 20:56 | 48.10116 | 6.97723 | 32452 ft | 472 kts | 326° |
| 2026-05-05 20:57 | 48.12921 | 6.95164 | 32844 ft | 471 kts | 326° |
| 2026-05-05 20:57 | 48.15722 | 6.92606 | 33214 ft | 470 kts | 326° |
| 2026-05-05 20:57 | 48.18471 | 6.90092 | 33596 ft | 468 kts | 326° |
| 2026-05-05 20:57 | 48.21285 | 6.87513 | 33869 ft | 469 kts | 326° |
| 2026-05-05 20:58 | 48.26808 | 6.82436 | 33873 ft | 468 kts | 327° |
| 2026-05-05 20:58 | 48.32356 | 6.77323 | 33863 ft | 468 kts | 327° |
| 2026-05-05 20:59 | 48.37909 | 6.72192 | 33860 ft | 468 kts | 327° |
| 2026-05-05 20:59 | 48.43462 | 6.67048 | 33852 ft | 468 kts | 327° |
| 2026-05-05 21:00 | 48.49021 | 6.61886 | 33855 ft | 469 kts | 327° |
| 2026-05-05 21:00 | 48.54575 | 6.56713 | 33852 ft | 470 kts | 327° |
| 2026-05-05 21:01 | 48.60099 | 6.51556 | 33837 ft | 470 kts | 327° |
| 2026-05-05 21:01 | 48.65659 | 6.46351 | 33834 ft | 470 kts | 327° |
| 2026-05-05 21:02 | 48.71218 | 6.41133 | 33830 ft | 470 kts | 327° |
| 2026-05-05 21:02 | 48.76761 | 6.35918 | 33829 ft | 470 kts | 327° |
| 2026-05-05 21:03 | 48.82312 | 6.30679 | 33832 ft | 470 kts | 327° |
| 2026-05-05 21:03 | 48.87869 | 6.25423 | 33829 ft | 470 kts | 327° |
| 2026-05-05 21:04 | 48.93420 | 6.20158 | 33829 ft | 470 kts | 327° |
| 2026-05-05 21:04 | 48.98963 | 6.14885 | 33839 ft | 470 kts | 327° |
| 2026-05-05 21:05 | 49.04478 | 6.09627 | 33829 ft | 470 kts | 327° |
| 2026-05-05 21:05 | 49.10025 | 6.04323 | 33829 ft | 470 kts | 327° |
| 2026-05-05 21:06 | 49.15553 | 5.99024 | 33817 ft | 470 kts | 327° |
| 2026-05-05 21:06 | 49.21100 | 5.93691 | 33817 ft | 471 kts | 327° |
| 2026-05-05 21:07 | 49.26637 | 5.88355 | 33808 ft | 470 kts | 327° |
| 2026-05-05 21:07 | 49.32176 | 5.83002 | 33807 ft | 470 kts | 327° |
| 2026-05-05 21:08 | 49.37699 | 5.77651 | 33822 ft | 471 kts | 327° |
| 2026-05-05 21:08 | 49.43235 | 5.72271 | 33811 ft | 471 kts | 328° |
| 2026-05-05 21:09 | 49.48750 | 5.66898 | 33807 ft | 471 kts | 328° |
| 2026-05-05 21:09 | 49.54288 | 5.61487 | 33803 ft | 471 kts | 328° |
| 2026-05-05 21:10 | 49.59823 | 5.56066 | 33808 ft | 472 kts | 328° |
| 2026-05-05 21:10 | 49.65362 | 5.50625 | 33805 ft | 472 kts | 328° |
| 2026-05-05 21:11 | 49.70912 | 5.45159 | 33806 ft | 472 kts | 328° |
| 2026-05-05 21:11 | 49.76423 | 5.39716 | 33810 ft | 473 kts | 328° |
| 2026-05-05 21:12 | 49.81963 | 5.34228 | 33812 ft | 474 kts | 328° |
| 2026-05-05 21:12 | 49.87510 | 5.28721 | 33806 ft | 476 kts | 328° |
| 2026-05-05 21:13 | 49.93101 | 5.23152 | 33817 ft | 477 kts | 328° |
| 2026-05-05 21:13 | 49.98679 | 5.17581 | 33818 ft | 477 kts | 327° |
| 2026-05-05 21:14 | 50.04263 | 5.11990 | 33824 ft | 477 kts | 327° |
| 2026-05-05 21:14 | 50.09855 | 5.06374 | 33824 ft | 478 kts | 327° |
| 2026-05-05 21:15 | 50.15455 | 5.00733 | 33844 ft | 480 kts | 327° |
| 2026-05-05 21:15 | 50.21061 | 4.95072 | 33837 ft | 480 kts | 327° |
| 2026-05-05 21:16 | 50.26631 | 4.89429 | 33847 ft | 480 kts | 327° |
| 2026-05-05 21:16 | 50.32232 | 4.83740 | 33836 ft | 480 kts | 327° |
| 2026-05-05 21:17 | 50.35077 | 4.81012 | 33314 ft | 480 kts | 334° |
| 2026-05-05 21:17 | 50.38250 | 4.79322 | 32012 ft | 487 kts | 354° |
| 2026-05-05 21:17 | 50.41596 | 4.79268 | 31510 ft | 476 kts | 6° |
| 2026-05-05 21:17 | 50.44883 | 4.79410 | 30804 ft | 475 kts | 2° |
| 2026-05-05 21:18 | 50.48199 | 4.79399 | 30068 ft | 475 kts | 2° |
| 2026-05-05 21:18 | 50.51502 | 4.79356 | 29346 ft | 473 kts | 1° |
| 2026-05-05 21:18 | 50.54778 | 4.79300 | 28704 ft | 468 kts | 1° |
| 2026-05-05 21:18 | 50.58021 | 4.79243 | 28086 ft | 464 kts | 1° |
| 2026-05-05 21:19 | 50.61228 | 4.79187 | 27539 ft | 459 kts | 1° |
| 2026-05-05 21:19 | 50.64412 | 4.79129 | 26968 ft | 455 kts | 1° |
| 2026-05-05 21:19 | 50.67555 | 4.79073 | 26422 ft | 451 kts | 0° |
| 2026-05-05 21:19 | 50.70675 | 4.79016 | 25892 ft | 447 kts | 0° |
| 2026-05-05 21:20 | 50.73773 | 4.78960 | 25363 ft | 443 kts | 0° |
| 2026-05-05 21:20 | 50.76845 | 4.78904 | 24861 ft | 439 kts | 0° |
| 2026-05-05 21:20 | 50.79881 | 4.78849 | 24355 ft | 436 kts | 360° |
| 2026-05-05 21:20 | 50.82906 | 4.78793 | 23863 ft | 432 kts | 360° |
| 2026-05-05 21:21 | 50.85901 | 4.78739 | 23359 ft | 429 kts | 359° |
| 2026-05-05 21:21 | 50.88877 | 4.78684 | 22774 ft | 426 kts | 359° |
| 2026-05-05 21:21 | 50.91826 | 4.78630 | 22254 ft | 423 kts | 359° |
| 2026-05-05 21:21 | 50.94754 | 4.78576 | 21722 ft | 419 kts | 359° |
| 2026-05-05 21:22 | 50.97626 | 4.78522 | 21180 ft | 417 kts | 359° |
| 2026-05-05 21:22 | 51.00518 | 4.78469 | 20734 ft | 413 kts | 359° |
| 2026-05-05 21:22 | 51.03379 | 4.78416 | 20205 ft | 411 kts | 359° |
| 2026-05-05 21:22 | 51.06228 | 4.78363 | 19734 ft | 408 kts | 359° |
| 2026-05-05 21:23 | 51.09058 | 4.78310 | 19288 ft | 404 kts | 359° |
| 2026-05-05 21:23 | 51.11865 | 4.78258 | 18807 ft | 402 kts | 359° |
| 2026-05-05 21:23 | 51.14659 | 4.78206 | 18376 ft | 399 kts | 359° |
| 2026-05-05 21:23 | 51.17415 | 4.78155 | 17912 ft | 397 kts | 359° |
| 2026-05-05 21:24 | 51.20164 | 4.78103 | 17421 ft | 394 kts | 359° |
| 2026-05-05 21:24 | 51.22900 | 4.78052 | 16941 ft | 391 kts | 359° |
| 2026-05-05 21:24 | 51.25607 | 4.78000 | 16563 ft | 386 kts | 359° |
| 2026-05-05 21:24 | 51.28278 | 4.77951 | 16164 ft | 382 kts | 359° |
| 2026-05-05 21:25 | 51.30915 | 4.77901 | 15765 ft | 378 kts | 359° |
| 2026-05-05 21:25 | 51.33528 | 4.77852 | 15366 ft | 374 kts | 359° |
| 2026-05-05 21:25 | 51.36116 | 4.77803 | 14971 ft | 370 kts | 0° |
| 2026-05-05 21:25 | 51.38683 | 4.77754 | 14560 ft | 367 kts | 0° |
| 2026-05-05 21:26 | 51.41228 | 4.77704 | 14155 ft | 364 kts | 1° |
| 2026-05-05 21:26 | 51.43739 | 4.77657 | 13789 ft | 360 kts | 1° |
| 2026-05-05 21:26 | 51.46222 | 4.77610 | 13461 ft | 354 kts | 1° |
| 2026-05-05 21:26 | 51.48656 | 4.77566 | 13252 ft | 345 kts | 0° |
| 2026-05-05 21:27 | 51.51022 | 4.77524 | 13069 ft | 335 kts | 1° |
| 2026-05-05 21:27 | 51.53326 | 4.77483 | 12900 ft | 326 kts | 0° |
| 2026-05-05 21:27 | 51.55562 | 4.77442 | 12747 ft | 317 kts | 0° |
| 2026-05-05 21:27 | 51.57702 | 4.77403 | 12638 ft | 305 kts | 0° |
| 2026-05-05 21:28 | 51.59792 | 4.77366 | 12493 ft | 295 kts | 0° |
| 2026-05-05 21:28 | 51.61827 | 4.77329 | 12268 ft | 288 kts | 360° |
| 2026-05-05 21:28 | 51.63811 | 4.77290 | 11760 ft | 285 kts | 0° |
| 2026-05-05 21:28 | 51.65791 | 4.77252 | 11236 ft | 283 kts | 0° |
| 2026-05-05 21:29 | 51.67744 | 4.77213 | 10727 ft | 280 kts | 0° |
| 2026-05-05 21:29 | 51.69691 | 4.77175 | 10166 ft | 280 kts | 360° |
| 2026-05-05 21:29 | 51.71627 | 4.77137 | 9623 ft | 278 kts | 360° |
| 2026-05-05 21:29 | 51.73548 | 4.77099 | 9112 ft | 274 kts | 0° |
| 2026-05-05 21:30 | 51.75447 | 4.77063 | 8605 ft | 271 kts | 360° |
| 2026-05-05 21:30 | 51.77324 | 4.77025 | 8066 ft | 269 kts | 360° |
| 2026-05-05 21:30 | 51.79197 | 4.76987 | 7499 ft | 269 kts | 0° |
| 2026-05-05 21:30 | 51.81068 | 4.76950 | 7086 ft | 269 kts | 0° |
| 2026-05-05 21:31 | 51.82309 | 4.76925 | 6862 ft | 268 kts | 360° |
| 2026-05-05 21:31 | 51.84189 | 4.76888 | 6576 ft | 266 kts | 360° |
| 2026-05-05 21:31 | 51.86037 | 4.76851 | 6280 ft | 264 kts | 0° |
| 2026-05-05 21:31 | 51.87842 | 4.76815 | 5986 ft | 262 kts | 0° |
| 2026-05-05 21:32 | 51.89659 | 4.76779 | 5691 ft | 260 kts | 0° |
| 2026-05-05 21:32 | 51.91468 | 4.76743 | 5399 ft | 259 kts | 0° |
| 2026-05-05 21:32 | 51.93255 | 4.76705 | 5112 ft | 257 kts | 1° |
| 2026-05-05 21:32 | 51.95030 | 4.76670 | 4826 ft | 254 kts | 1° |
| 2026-05-05 21:33 | 51.96792 | 4.76636 | 4540 ft | 252 kts | 1° |
| 2026-05-05 21:33 | 51.98535 | 4.76602 | 4255 ft | 249 kts | 1° |
| 2026-05-05 21:33 | 52.00264 | 4.76567 | 3977 ft | 248 kts | 1° |
| 2026-05-05 21:33 | 52.01980 | 4.76533 | 3839 ft | 246 kts | 1° |
| 2026-05-05 21:34 | 52.03697 | 4.76499 | 3722 ft | 246 kts | 1° |
| 2026-05-05 21:34 | 52.05385 | 4.76296 | 3582 ft | 247 kts | 352° |
| 2026-05-05 21:34 | 52.07106 | 4.75938 | 3466 ft | 246 kts | 359° |
| 2026-05-05 21:34 | 52.08786 | 4.75905 | 3357 ft | 234 kts | 3° |
| 2026-05-05 21:35 | 52.10331 | 4.76006 | 3218 ft | 220 kts | 5° |
| 2026-05-05 21:35 | 52.11844 | 4.76145 | 3052 ft | 217 kts | 6° |
| 2026-05-05 21:35 | 52.13351 | 4.76286 | 2850 ft | 216 kts | 5° |
| 2026-05-05 21:35 | 52.14851 | 4.76424 | 2484 ft | 215 kts | 6° |
| 2026-05-05 21:36 | 52.16342 | 4.76562 | 2206 ft | 212 kts | 6° |
| 2026-05-05 21:36 | 52.17800 | 4.76696 | 2044 ft | 209 kts | 6° |
| 2026-05-05 21:36 | 52.19239 | 4.76827 | 1927 ft | 202 kts | 6° |
| 2026-05-05 21:36 | 52.20612 | 4.76953 | 1693 ft | 192 kts | 6° |
| 2026-05-05 21:37 | 52.21900 | 4.77072 | 1440 ft | 179 kts | 6° |
| 2026-05-05 21:37 | 52.23083 | 4.77180 | 1210 ft | 163 kts | 6° |
| 2026-05-05 21:37 | 52.24153 | 4.77281 | 1007 ft | 142 kts | 6° |
| 2026-05-05 21:37 | 52.25069 | 4.77365 | 836 ft | 128 kts | 5° |
| 2026-05-05 21:38 | 52.25975 | 4.77448 | 618 ft | 132 kts | 5° |
| 2026-05-05 21:38 | 52.26899 | 4.77533 | 459 ft | 135 kts | 5° |
| 2026-05-05 21:38 | 52.27820 | 4.77617 | 281 ft | 132 kts | 3° |
| 2026-05-05 21:38 | 52.28753 | 4.77700 | 117 ft | 133 kts | 4° |
| 2026-05-05 21:39 | 52.29659 | 4.77780 | 2 ft | 124 kts | 6° |
| 2026-05-05 21:39 | 52.30345 | 4.77842 | 4 ft | 49 kts | 352° |
| 2026-05-05 21:39 | 52.30542 | 4.77711 | 1 ft | 23 kts | 334° |
| 2026-05-05 21:39 | 52.30612 | 4.77654 | 0 ft | 6 kts | 332° |
| 2026-05-05 21:40 | 52.30654 | 4.77617 | 0 ft | 7 kts | 324° |
| 2026-05-05 21:40 | 52.30659 | 4.77584 | 0 ft | 3 kts | 254° |
| 2026-05-05 21:40 | 52.30645 | 4.77499 | 0 ft | 14 kts | 261° |
| 2026-05-05 21:40 | 52.30644 | 4.77309 | 0 ft | 13 kts | 274° |
| 2026-05-05 21:41 | 52.30669 | 4.77216 | 0 ft | 7 kts | 339° |
| 2026-05-05 21:41 | 52.30707 | 4.77216 | 0 ft | 0 kts | 3° |